createdAt,value
2022-12-06T00:00:54.670Z,99859.90
2022-12-06T00:04:00.882Z,99856.84
2022-12-06T00:07:07.759Z,99854.42
2022-12-06T00:10:10.897Z,99856.04
2022-12-06T00:13:14.363Z,99848.47
2022-12-06T00:16:17.607Z,99847.43
2022-12-06T00:19:22.972Z,99842.69
2022-12-06T00:22:29.805Z,99840.79
2022-12-06T00:25:36.199Z,99839.27
2022-12-06T00:28:44.605Z,99842.09
2022-12-06T00:31:49.853Z,99839.34
2022-12-06T00:34:52.867Z,99839.72
2022-12-06T00:37:56.057Z,99842.77
2022-12-06T00:41:11.756Z,99844.27
2022-12-06T00:44:14.853Z,99842.77
2022-12-06T00:47:17.752Z,99842.33
2022-12-06T00:50:20.755Z,99845.16
2022-12-06T00:53:24.254Z,99845.09
2022-12-06T00:56:27.362Z,99846.44
2022-12-06T00:59:30.407Z,99845.26
2022-12-06T01:02:33.284Z,99846.94
2022-12-06T01:05:48.594Z,99850.20
2022-12-06T01:08:51.728Z,99851.46
2022-12-06T01:11:54.531Z,99850.19
2022-12-06T01:14:57.343Z,99846.50
2022-12-06T01:18:00.132Z,99843.44
2022-12-06T01:21:08.286Z,99835.73
2022-12-06T01:24:11.132Z,99833.67
2022-12-06T01:27:14.376Z,99831.41
2022-12-06T01:30:17.321Z,99828.16
2022-12-06T01:33:20.453Z,99816.89
2022-12-06T01:36:25.341Z,99809.31
2022-12-06T01:39:28.223Z,99796.42
2022-12-06T01:42:31.048Z,99796.91
2022-12-06T01:45:44.245Z,99796.08
2022-12-06T01:48:55.065Z,99791.23
2022-12-06T01:52:03.017Z,99796.75
2022-12-06T01:55:11.254Z,99800.75
2022-12-06T01:58:19.045Z,99801.00
2022-12-06T02:01:23.084Z,99800.27
2022-12-06T02:04:27.214Z,99798.77
2022-12-06T02:07:31.618Z,99798.29
2022-12-06T02:10:34.530Z,99783.79
2022-12-06T02:13:41.626Z,99780.69
2022-12-06T02:16:59.893Z,99783.55
2022-12-06T02:20:08.610Z,99784.27
2022-12-06T02:23:17.480Z,99779.39
2022-12-06T02:26:29.580Z,99780.33
2022-12-06T02:29:57.279Z,99779.66
2022-12-06T02:33:07.100Z,99773.63
2022-12-06T02:36:37.262Z,99768.62
2022-12-06T02:39:55.810Z,99763.94
2022-12-06T02:43:31.202Z,99751.59
2022-12-06T02:46:39.545Z,99748.21
2022-12-06T02:49:46.668Z,99733.81
2022-12-06T02:52:53.920Z,99743.89
2022-12-06T02:55:58.351Z,99742.69
2022-12-06T02:59:01.969Z,99739.69
2022-12-06T03:02:10.957Z,99734.04
2022-12-06T03:05:27.230Z,99730.82
2022-12-06T03:09:12.391Z,99732.27
2022-12-06T03:12:29.117Z,99732.00
2022-12-06T03:15:58.529Z,99729.77
2022-12-06T03:19:23.215Z,99727.02
2022-12-06T03:22:36.885Z,99733.77
2022-12-06T03:25:45.477Z,99733.64
2022-12-06T03:28:50.587Z,99727.65
2022-12-06T03:31:56.117Z,99724.30
2022-12-06T03:35:05.830Z,99726.39
2022-12-06T03:38:14.973Z,99725.95
2022-12-06T03:41:21.934Z,99724.71
2022-12-06T03:49:19.555Z,99718.71
2022-12-06T03:57:01.557Z,99703.69
2022-12-06T04:00:06.295Z,99699.41
2022-12-06T04:03:09.150Z,99704.39
2022-12-06T04:06:12.467Z,99708.72
2022-12-06T04:09:34.309Z,99706.23
2022-12-06T04:12:55.620Z,99699.98
2022-12-06T04:16:00.583Z,99705.19
2022-12-06T04:19:06.426Z,99709.03
2022-12-06T04:22:28.592Z,99707.59
2022-12-06T04:25:36.268Z,99703.44
2022-12-06T04:28:57.963Z,99696.92
2022-12-06T04:32:19.721Z,99694.27
2022-12-06T04:35:43.547Z,99686.95
2022-12-06T04:38:46.345Z,99681.80
2022-12-06T04:42:08.845Z,99684.96
2022-12-06T04:45:12.705Z,99684.38
2022-12-06T04:48:15.545Z,99681.53
2022-12-06T04:51:18.393Z,99682.27
2022-12-06T04:54:22.789Z,99676.46
2022-12-06T04:57:25.621Z,99673.11
2022-12-06T05:00:28.583Z,99679.56
2022-12-06T05:03:31.689Z,99674.99
2022-12-06T05:06:34.670Z,99682.88
2022-12-06T05:09:37.779Z,99682.36
2022-12-06T05:12:40.569Z,99680.45
2022-12-06T05:15:55.525Z,99683.66
2022-12-06T05:19:53.291Z,99678.42
2022-12-06T05:22:59.276Z,99679.17
2022-12-06T05:26:11.619Z,99679.56
2022-12-06T05:29:16.563Z,99678.34
2022-12-06T05:32:19.423Z,99681.81
2022-12-06T05:35:22.236Z,99683.04
2022-12-06T05:38:25.590Z,99681.45
2022-12-06T05:41:55.504Z,99679.69
2022-12-06T05:44:58.284Z,99677.16
2022-12-06T05:48:28.370Z,99679.60
2022-12-06T05:51:31.262Z,99678.58
2022-12-06T05:54:34.112Z,99678.21
2022-12-06T05:57:36.938Z,99675.20
2022-12-06T06:00:39.917Z,99672.04
2022-12-06T06:03:47.427Z,99670.56
2022-12-06T06:06:51.728Z,99669.67
2022-12-06T06:09:54.733Z,99666.02
2022-12-06T06:12:57.605Z,99666.73
2022-12-06T06:16:00.629Z,99661.36
2022-12-06T06:19:06.650Z,99656.83
2022-12-06T06:22:09.529Z,99657.67
2022-12-06T06:25:12.384Z,99666.63
2022-12-06T06:28:16.013Z,99671.42
2022-12-06T06:31:18.886Z,99673.55
2022-12-06T06:34:21.790Z,99676.67
2022-12-06T06:37:24.721Z,99673.46
2022-12-06T06:40:28.870Z,99667.91
2022-12-06T06:43:32.394Z,99664.40
2022-12-06T06:46:36.583Z,99663.61
2022-12-06T06:49:39.490Z,99664.23
2022-12-06T06:52:42.307Z,99664.70
2022-12-06T06:55:46.083Z,99669.28
2022-12-06T06:58:48.990Z,99668.55
2022-12-06T07:01:52.231Z,99667.27
2022-12-06T07:04:55.064Z,99666.30
2022-12-06T07:07:58.276Z,99662.41
2022-12-06T07:11:01.326Z,99657.52
2022-12-06T07:14:04.834Z,99656.13
2022-12-06T07:17:07.788Z,99657.97
2022-12-06T07:20:11.379Z,99660.41
2022-12-06T07:23:15.455Z,99659.13
2022-12-06T07:26:21.308Z,99664.37
2022-12-06T07:29:24.095Z,99669.92
2022-12-06T07:32:27.025Z,99675.10
2022-12-06T07:35:48.816Z,99673.27
2022-12-06T07:38:56.017Z,99681.63
2022-12-06T07:42:29.796Z,99682.96
2022-12-06T07:45:32.713Z,99683.27
2022-12-06T07:48:35.485Z,99674.68
2022-12-06T07:52:16.220Z,99671.36
2022-12-06T07:55:19.686Z,99666.00
2022-12-06T07:58:23.005Z,99666.77
2022-12-06T08:01:26.935Z,99665.90
2022-12-06T08:04:29.895Z,99658.30
2022-12-06T08:07:32.738Z,99662.30
2022-12-06T08:10:36.733Z,99664.99
2022-12-06T08:13:42.597Z,99663.40
2022-12-06T08:16:45.410Z,99663.02
2022-12-06T08:19:48.294Z,99662.27
2022-12-06T08:22:51.177Z,99663.58
2022-12-06T08:26:02.762Z,99658.42
2022-12-06T08:29:05.634Z,99659.58
2022-12-06T08:32:41.966Z,99653.83
2022-12-06T08:35:44.834Z,99651.65
2022-12-06T08:39:08.394Z,99650.70
2022-12-06T08:42:25.188Z,99648.70
2022-12-06T08:45:28.369Z,99648.39
2022-12-06T08:48:31.180Z,99652.98
2022-12-06T08:51:35.865Z,99650.84
2022-12-06T08:54:39.676Z,99648.11
2022-12-06T08:57:42.519Z,99653.60
2022-12-06T09:00:45.320Z,99648.81
2022-12-06T09:03:48.264Z,99651.59
2022-12-06T09:06:51.210Z,99653.79
2022-12-06T09:09:55.610Z,99653.45
2022-12-06T09:12:58.357Z,99649.99
2022-12-06T09:16:06.164Z,99648.15
2022-12-06T09:19:09.987Z,99646.83
2022-12-06T09:22:12.786Z,99640.73
2022-12-06T09:25:15.578Z,99639.85
2022-12-06T09:28:18.693Z,99639.09
2022-12-06T09:31:21.954Z,99640.85
2022-12-06T09:34:25.607Z,99638.61
2022-12-06T09:37:30.561Z,99638.98
2022-12-06T09:40:43.146Z,99631.66
2022-12-06T09:44:13.497Z,99630.02
2022-12-06T09:47:55.875Z,99623.77
2022-12-06T09:51:17.283Z,99623.16
2022-12-06T09:54:28.804Z,99620.12
2022-12-06T09:57:47.321Z,99619.27
2022-12-06T10:01:14.112Z,99619.27
2022-12-06T10:04:41.698Z,99614.67
2022-12-06T10:12:57.456Z,99603.01
2022-12-06T10:16:21.687Z,99602.23
2022-12-06T10:24:33.324Z,99588.34
2022-12-06T10:27:56.315Z,99588.09
2022-12-06T10:31:07.151Z,99582.61
2022-12-06T10:34:44.401Z,99580.07
2022-12-06T10:38:05.354Z,99571.80
2022-12-06T10:42:11.108Z,99565.71
2022-12-06T10:45:35.349Z,99563.70
2022-12-06T10:48:53.801Z,99561.42
2022-12-06T10:52:07.670Z,99559.64
2022-12-06T10:55:10.689Z,99554.48
2022-12-06T10:59:05.796Z,99554.46
2022-12-06T11:02:34.639Z,99557.42
2022-12-06T11:05:43.470Z,99558.27
2022-12-06T11:08:54.579Z,99555.01
2022-12-06T11:11:58.225Z,99554.88
2022-12-06T11:20:02.050Z,99567.95
2022-12-06T11:23:19.499Z,99566.63
2022-12-06T11:27:12.852Z,99567.59
2022-12-06T11:36:29.697Z,99561.56
2022-12-06T11:39:34.300Z,99565.27
2022-12-06T11:42:37.087Z,99564.34
2022-12-06T11:45:43.568Z,99569.29
2022-12-06T11:48:46.628Z,99568.05
2022-12-06T11:51:51.688Z,99567.65
2022-12-06T11:55:02.714Z,99562.42
2022-12-06T12:03:01.651Z,99555.10
2022-12-06T12:06:27.334Z,99555.02
2022-12-06T12:09:35.603Z,99550.38
2022-12-06T12:13:06.627Z,99548.91
2022-12-06T12:16:20.829Z,99532.30
2022-12-06T12:19:42.935Z,99528.65
2022-12-06T12:22:46.579Z,99524.91
2022-12-06T12:26:03.019Z,99524.17
2022-12-06T12:30:01.472Z,99521.38
2022-12-06T12:33:07.708Z,99514.11
2022-12-06T12:36:17.647Z,99511.98
2022-12-06T12:44:36.942Z,99501.73
2022-12-06T12:47:59.642Z,99498.48
2022-12-06T12:51:06.406Z,99499.27
2022-12-06T12:54:28.384Z,99502.70
2022-12-06T12:57:31.297Z,99499.02
2022-12-06T13:00:46.001Z,99491.61
2022-12-06T13:03:53.113Z,99497.20
2022-12-06T13:07:06.194Z,99493.60
2022-12-06T13:10:12.276Z,99488.21
2022-12-06T13:13:20.133Z,99490.69
2022-12-06T13:16:30.903Z,99490.04
2022-12-06T13:19:39.561Z,99483.09
2022-12-06T13:24:02.182Z,99479.45
2022-12-06T13:27:08.178Z,99477.09
2022-12-06T13:30:26.995Z,99479.92
2022-12-06T13:33:34.558Z,99482.18
2022-12-06T13:44:41.965Z,99485.08
2022-12-06T13:47:51.575Z,99482.08
2022-12-06T13:50:59.825Z,99481.23
2022-12-06T13:54:05.889Z,99492.26
2022-12-06T13:57:23.003Z,99493.45
2022-12-06T14:00:31.505Z,99500.57
2022-12-06T14:03:40.486Z,99502.77
2022-12-06T14:11:38.138Z,99503.46
2022-12-06T14:14:42.547Z,99503.98
2022-12-06T14:18:11.230Z,99501.56
2022-12-06T14:21:27.155Z,99503.36
2022-12-06T14:24:29.963Z,99495.98
2022-12-06T14:37:38.676Z,99491.17
2022-12-06T14:41:02.438Z,99490.82
2022-12-06T14:44:18.353Z,99491.35
2022-12-06T14:48:05.471Z,99491.98
2022-12-06T14:51:23.244Z,99493.30
2022-12-06T14:54:26.637Z,99488.88
2022-12-06T14:57:31.822Z,99491.61
2022-12-06T15:00:51.975Z,99492.29
2022-12-06T15:04:05.623Z,99489.73
2022-12-06T15:12:39.917Z,99481.67
2022-12-06T15:16:46.497Z,99482.44
2022-12-06T15:19:51.894Z,99477.00
2022-12-06T15:22:54.664Z,99472.94
2022-12-06T15:25:57.596Z,99471.15
2022-12-06T15:29:00.399Z,99466.30
2022-12-06T15:32:03.563Z,99469.83
2022-12-06T15:35:09.397Z,99468.35
2022-12-06T15:38:15.102Z,99464.67
2022-12-06T15:41:21.617Z,99462.55
2022-12-06T15:44:27.711Z,99461.69
2022-12-06T15:47:30.543Z,99464.38
2022-12-06T15:50:33.434Z,99460.95
2022-12-06T15:53:37.461Z,99460.13
2022-12-06T16:09:29.532Z,99452.19
2022-12-06T16:13:04.558Z,99451.83
2022-12-06T16:16:43.324Z,99452.55
2022-12-06T16:20:36.473Z,99444.16
2022-12-06T16:24:14.873Z,99444.79
2022-12-06T16:32:22.568Z,99448.78
2022-12-06T16:35:35.361Z,99446.70
2022-12-06T16:38:45.340Z,99452.56
2022-12-06T16:53:38.293Z,99442.23
2022-12-06T17:00:30.924Z,99445.69
2022-12-06T17:03:38.932Z,99450.89
2022-12-06T17:06:58.042Z,99445.13
2022-12-06T17:10:32.550Z,99442.73
2022-12-06T17:13:44.292Z,99439.02
2022-12-06T17:17:10.491Z,99439.64
2022-12-06T17:20:29.967Z,99441.16
2022-12-06T17:23:35.536Z,99436.04
2022-12-06T17:34:57.876Z,99433.27
2022-12-06T17:38:19.522Z,99437.71
2022-12-06T17:54:41.138Z,99433.17
2022-12-06T17:57:46.557Z,99432.19
2022-12-06T18:04:58.301Z,99441.09
2022-12-06T18:08:06.485Z,99439.86
2022-12-06T18:11:19.650Z,99437.23
2022-12-06T18:14:31.622Z,99446.65
2022-12-06T18:17:37.298Z,99444.27
2022-12-06T18:21:07.882Z,99444.20
2022-12-06T18:24:25.580Z,99442.95
2022-12-06T18:27:31.090Z,99442.91
2022-12-06T18:30:45.441Z,99441.04
2022-12-06T18:33:49.187Z,99439.45
2022-12-06T18:36:52.357Z,99445.14
2022-12-06T18:39:55.436Z,99441.96
2022-12-06T18:42:58.503Z,99443.09
2022-12-06T18:46:04.544Z,99443.39
2022-12-06T18:49:10.003Z,99437.70
2022-12-06T18:52:16.745Z,99444.58
2022-12-06T18:55:21.207Z,99444.85
2022-12-06T18:58:26.782Z,99435.83
2022-12-06T19:01:36.619Z,99438.88
2022-12-06T19:04:41.456Z,99434.17
2022-12-06T19:07:46.565Z,99439.41
2022-12-06T19:10:51.916Z,99432.34
2022-12-06T19:13:58.588Z,99434.85
2022-12-06T19:17:02.055Z,99434.10
2022-12-06T19:20:10.747Z,99428.77
2022-12-06T19:23:37.964Z,99430.30
2022-12-06T19:26:53.641Z,99429.01
2022-12-06T19:30:13.692Z,99432.42
2022-12-06T19:33:46.083Z,99430.56
2022-12-06T19:36:55.300Z,99428.55
2022-12-06T19:40:00.692Z,99418.95
2022-12-06T19:43:26.736Z,99416.39
2022-12-06T19:46:51.844Z,99415.71
2022-12-06T19:49:58.252Z,99410.35
2022-12-06T19:53:12.620Z,99407.75
2022-12-06T19:56:20.493Z,99408.05
2022-12-06T19:59:26.740Z,99412.13
2022-12-06T20:02:29.784Z,99411.73
2022-12-06T20:05:34.125Z,99410.98
2022-12-06T20:08:38.305Z,99411.05
2022-12-06T20:12:01.286Z,99408.36
2022-12-06T20:15:04.909Z,99408.97
2022-12-06T20:18:08.195Z,99403.94
2022-12-06T20:21:11.204Z,99401.42
2022-12-06T20:24:20.747Z,99400.27
2022-12-06T20:27:47.634Z,99397.83
2022-12-06T20:30:52.612Z,99397.04
2022-12-06T20:34:00.674Z,99395.06
2022-12-06T20:37:13.163Z,99399.56
2022-12-06T20:40:31.412Z,99397.59
2022-12-06T20:43:49.489Z,99392.99
2022-12-06T20:46:54.262Z,99390.05
2022-12-06T20:49:57.591Z,99390.02
2022-12-06T20:53:00.510Z,99387.92
2022-12-06T20:56:05.442Z,99385.56
2022-12-06T20:59:10.978Z,99383.40
2022-12-06T21:02:14.180Z,99382.00
2022-12-06T21:05:18.838Z,99382.45
2022-12-06T21:08:21.946Z,99384.17
2022-12-06T21:11:25.616Z,99385.61
2022-12-06T21:14:28.557Z,99389.15
2022-12-06T21:17:33.355Z,99385.04
2022-12-06T21:20:41.635Z,99389.35
2022-12-06T21:23:46.118Z,99391.09
2022-12-06T21:26:49.842Z,99389.05
2022-12-06T21:29:53.144Z,99389.34
2022-12-06T21:32:56.283Z,99388.41
2022-12-06T21:36:04.450Z,99393.16
2022-12-06T21:39:08.175Z,99381.64
2022-12-06T21:42:15.549Z,99385.86
2022-12-06T21:45:18.425Z,99386.05
2022-12-06T21:48:21.278Z,99387.36
2022-12-06T21:51:26.688Z,99388.12
2022-12-06T21:54:32.721Z,99390.48
2022-12-06T21:57:36.330Z,99385.56
2022-12-06T22:01:12.659Z,99381.58
2022-12-06T22:04:17.136Z,99380.34
2022-12-06T22:07:20.057Z,99379.19
2022-12-06T22:10:22.935Z,99379.52
2022-12-06T22:13:25.779Z,99378.37
2022-12-06T22:16:29.259Z,99378.51
2022-12-06T22:19:32.164Z,99380.19
2022-12-06T22:22:34.992Z,99378.49
2022-12-06T22:25:40.861Z,99378.64
2022-12-06T22:28:44.120Z,99381.08
2022-12-06T22:31:52.864Z,99384.48
2022-12-06T22:34:55.722Z,99381.15
2022-12-06T22:38:28.714Z,99376.24
2022-12-06T22:41:32.214Z,99374.09
2022-12-06T22:44:35.191Z,99372.65
2022-12-06T22:47:38.024Z,99377.48
2022-12-06T22:50:40.867Z,99376.52
2022-12-06T22:53:49.105Z,99376.85
2022-12-06T22:56:51.930Z,99375.13
2022-12-06T22:59:54.726Z,99371.48
2022-12-06T23:02:58.763Z,99368.27
2022-12-06T23:06:01.713Z,99364.30
2022-12-06T23:09:08.740Z,99364.02
2022-12-06T23:12:14.236Z,99364.00
2022-12-06T23:15:17.096Z,99363.54
2022-12-06T23:18:19.983Z,99355.59
2022-12-06T23:21:25.682Z,99356.95
2022-12-06T23:24:58.788Z,99361.46
2022-12-06T23:28:01.564Z,99357.35
2022-12-06T23:31:11.669Z,99358.43
2022-12-06T23:41:56.567Z,99364.77
2022-12-06T23:45:01.379Z,99362.42
2022-12-06T23:48:04.340Z,99363.51
2022-12-06T23:51:16.602Z,99359.90
2022-12-06T23:54:19.549Z,99355.94
2022-12-06T23:57:23.527Z,99357.76
